sensor_id;sensor_type;location;lat;lon;timestamp;P1;durP1;ratioP1;P2;durP2;ratioP2
71665;SDS011;59503;53.486;10.196;2023-03-02T00:00:09;43.37;;;13.77;;
71665;SDS011;59503;53.486;10.196;2023-03-02T00:02:41;43.20;;;13.60;;
71665;SDS011;59503;53.486;10.196;2023-03-02T00:05:08;40.78;;;13.35;;
71665;SDS011;59503;53.486;10.196;2023-03-02T00:07:35;39.30;;;13.60;;
71665;SDS011;59503;53.486;10.196;2023-03-02T00:10:02;38.25;;;13.23;;
71665;SDS011;59503;53.486;10.196;2023-03-02T00:12:28;39.63;;;12.55;;
71665;SDS011;59503;53.486;10.196;2023-03-02T00:14:56;38.57;;;12.47;;
71665;SDS011;59503;53.486;10.196;2023-03-02T00:17:21;41.42;;;12.90;;
71665;SDS011;59503;53.486;10.196;2023-03-02T00:19:53;45.93;;;13.23;;
71665;SDS011;59503;53.486;10.196;2023-03-02T00:22:19;43.35;;;13.13;;
71665;SDS011;59503;53.486;10.196;2023-03-02T00:24:44;42.57;;;12.47;;
71665;SDS011;59503;53.486;10.196;2023-03-02T00:27:10;40.30;;;12.75;;
71665;SDS011;59503;53.486;10.196;2023-03-02T00:29:35;38.83;;;12.47;;
71665;SDS011;59503;53.486;10.196;2023-03-02T00:32:01;48.23;;;12.53;;
71665;SDS011;59503;53.486;10.196;2023-03-02T00:34:28;38.03;;;12.63;;
71665;SDS011;59503;53.486;10.196;2023-03-02T00:36:57;37.35;;;11.55;;
71665;SDS011;59503;53.486;10.196;2023-03-02T00:39:23;31.20;;;10.52;;
71665;SDS011;59503;53.486;10.196;2023-03-02T00:41:48;35.27;;;12.43;;
71665;SDS011;59503;53.486;10.196;2023-03-02T00:44:14;35.75;;;10.75;;
71665;SDS011;59503;53.486;10.196;2023-03-02T00:46:42;33.15;;;11.07;;
71665;SDS011;59503;53.486;10.196;2023-03-02T00:49:07;30.23;;;9.43;;
71665;SDS011;59503;53.486;10.196;2023-03-02T00:51:33;30.42;;;10.35;;
71665;SDS011;59503;53.486;10.196;2023-03-02T00:53:58;32.63;;;10.73;;
71665;SDS011;59503;53.486;10.196;2023-03-02T00:56:26;29.77;;;10.77;;
71665;SDS011;59503;53.486;10.196;2023-03-02T00:58:52;28.88;;;10.07;;
71665;SDS011;59503;53.486;10.196;2023-03-02T01:01:18;32.07;;;10.57;;
71665;SDS011;59503;53.486;10.196;2023-03-02T01:03:43;35.33;;;11.73;;
71665;SDS011;59503;53.486;10.196;2023-03-02T01:06:13;36.97;;;10.83;;
71665;SDS011;59503;53.486;10.196;2023-03-02T01:08:40;30.08;;;10.45;;
71665;SDS011;59503;53.486;10.196;2023-03-02T01:11:11;33.37;;;10.70;;
71665;SDS011;59503;53.486;10.196;2023-03-02T01:13:37;31.30;;;10.88;;
71665;SDS011;59503;53.486;10.196;2023-03-02T01:16:03;32.23;;;10.37;;
71665;SDS011;59503;53.486;10.196;2023-03-02T01:18:28;25.95;;;9.63;;
71665;SDS011;59503;53.486;10.196;2023-03-02T01:21:01;35.47;;;10.83;;
71665;SDS011;59503;53.486;10.196;2023-03-02T01:23:28;30.10;;;10.13;;
71665;SDS011;59503;53.486;10.196;2023-03-02T01:25:53;28.60;;;9.60;;
71665;SDS011;59503;53.486;10.196;2023-03-02T01:28:19;28.50;;;9.45;;
71665;SDS011;59503;53.486;10.196;2023-03-02T01:30:44;28.37;;;8.93;;
71665;SDS011;59503;53.486;10.196;2023-03-02T01:33:10;28.23;;;8.50;;
71665;SDS011;59503;53.486;10.196;2023-03-02T01:35:36;27.23;;;9.30;;
71665;SDS011;59503;53.486;10.196;2023-03-02T01:38:01;26.70;;;9.70;;
71665;SDS011;59503;53.486;10.196;2023-03-02T01:40:26;29.53;;;9.33;;
71665;SDS011;59503;53.486;10.196;2023-03-02T01:42:56;26.47;;;8.97;;
71665;SDS011;59503;53.486;10.196;2023-03-02T01:48:11;26.55;;;9.18;;
71665;SDS011;59503;53.486;10.196;2023-03-02T01:50:39;25.83;;;8.60;;
71665;SDS011;59503;53.486;10.196;2023-03-02T01:53:05;25.73;;;9.27;;
71665;SDS011;59503;53.486;10.196;2023-03-02T01:55:31;30.35;;;10.00;;
71665;SDS011;59503;53.486;10.196;2023-03-02T01:58:00;27.00;;;8.85;;
71665;SDS011;59503;53.486;10.196;2023-03-02T02:00:28;25.93;;;9.03;;
71665;SDS011;59503;53.486;10.196;2023-03-02T02:02:58;25.55;;;9.18;;
71665;SDS011;59503;53.486;10.196;2023-03-02T02:05:33;33.00;;;9.93;;
71665;SDS011;59503;53.486;10.196;2023-03-02T02:08:00;33.30;;;11.48;;
71665;SDS011;59503;53.486;10.196;2023-03-02T02:10:26;29.17;;;9.15;;
71665;SDS011;59503;53.486;10.196;2023-03-02T02:12:52;26.77;;;9.13;;
71665;SDS011;59503;53.486;10.196;2023-03-02T02:15:18;29.08;;;8.68;;
71665;SDS011;59503;53.486;10.196;2023-03-02T02:17:43;27.87;;;8.60;;
71665;SDS011;59503;53.486;10.196;2023-03-02T02:28:04;27.50;;;9.17;;
71665;SDS011;59503;53.486;10.196;2023-03-02T02:30:35;29.52;;;9.38;;
71665;SDS011;59503;53.486;10.196;2023-03-02T02:33:02;31.05;;;10.60;;
71665;SDS011;59503;53.486;10.196;2023-03-02T02:35:29;29.02;;;8.77;;
71665;SDS011;59503;53.486;10.196;2023-03-02T02:38:03;26.95;;;9.18;;
71665;SDS011;59503;53.486;10.196;2023-03-02T02:40:43;28.83;;;9.33;;
71665;SDS011;59503;53.486;10.196;2023-03-02T02:43:13;24.40;;;9.35;;
71665;SDS011;59503;53.486;10.196;2023-03-02T02:45:41;24.17;;;9.15;;
71665;SDS011;59503;53.486;10.196;2023-03-02T02:48:08;24.73;;;8.53;;
71665;SDS011;59503;53.486;10.196;2023-03-02T02:50:39;32.78;;;9.80;;
71665;SDS011;59503;53.486;10.196;2023-03-02T02:53:06;33.17;;;9.20;;
71665;SDS011;59503;53.486;10.196;2023-03-02T02:55:37;29.43;;;9.30;;
71665;SDS011;59503;53.486;10.196;2023-03-02T02:58:06;27.50;;;9.25;;
71665;SDS011;59503;53.486;10.196;2023-03-02T03:00:44;31.83;;;9.68;;
71665;SDS011;59503;53.486;10.196;2023-03-02T03:03:14;23.23;;;7.97;;
71665;SDS011;59503;53.486;10.196;2023-03-02T03:05:55;28.77;;;9.77;;
71665;SDS011;59503;53.486;10.196;2023-03-02T03:08:38;28.65;;;9.60;;
71665;SDS011;59503;53.486;10.196;2023-03-02T03:11:15;26.35;;;9.23;;
71665;SDS011;59503;53.486;10.196;2023-03-02T03:13:43;29.03;;;9.33;;
71665;SDS011;59503;53.486;10.196;2023-03-02T03:16:12;30.35;;;9.82;;
71665;SDS011;59503;53.486;10.196;2023-03-02T03:18:41;27.70;;;10.02;;
71665;SDS011;59503;53.486;10.196;2023-03-02T03:21:08;29.50;;;9.73;;
71665;SDS011;59503;53.486;10.196;2023-03-02T03:23:34;29.03;;;9.13;;
71665;SDS011;59503;53.486;10.196;2023-03-02T03:26:02;28.77;;;9.23;;
71665;SDS011;59503;53.486;10.196;2023-03-02T03:28:29;23.20;;;8.27;;
71665;SDS011;59503;53.486;10.196;2023-03-02T03:30:54;28.57;;;9.43;;
71665;SDS011;59503;53.486;10.196;2023-03-02T03:33:20;31.20;;;9.80;;
71665;SDS011;59503;53.486;10.196;2023-03-02T03:35:46;28.17;;;9.83;;
71665;SDS011;59503;53.486;10.196;2023-03-02T03:38:11;31.15;;;9.80;;
71665;SDS011;59503;53.486;10.196;2023-03-02T03:40:36;37.47;;;10.03;;
71665;SDS011;59503;53.486;10.196;2023-03-02T03:43:02;26.10;;;9.80;;
71665;SDS011;59503;53.486;10.196;2023-03-02T03:45:28;31.80;;;9.93;;
71665;SDS011;59503;53.486;10.196;2023-03-02T03:47:54;26.60;;;9.30;;
71665;SDS011;59503;53.486;10.196;2023-03-02T03:50:19;32.65;;;9.95;;
71665;SDS011;59503;53.486;10.196;2023-03-02T03:52:45;30.30;;;9.97;;
71665;SDS011;59503;53.486;10.196;2023-03-02T03:55:11;35.70;;;10.75;;
71665;SDS011;59503;53.486;10.196;2023-03-02T03:57:37;32.55;;;10.52;;
71665;SDS011;59503;53.486;10.196;2023-03-02T04:00:04;34.47;;;10.07;;
71665;SDS011;59503;53.486;10.196;2023-03-02T04:02:32;31.75;;;9.82;;
71665;SDS011;59503;53.486;10.196;2023-03-02T04:04:57;32.13;;;10.60;;
71665;SDS011;59503;53.486;10.196;2023-03-02T04:07:30;24.85;;;8.75;;
71665;SDS011;59503;53.486;10.196;2023-03-02T04:09:56;30.58;;;9.45;;
71665;SDS011;59503;53.486;10.196;2023-03-02T04:12:34;30.70;;;9.95;;
71665;SDS011;59503;53.486;10.196;2023-03-02T04:15:02;29.17;;;8.90;;
71665;SDS011;59503;53.486;10.196;2023-03-02T04:17:29;31.30;;;9.82;;
71665;SDS011;59503;53.486;10.196;2023-03-02T04:19:54;28.70;;;9.32;;
71665;SDS011;59503;53.486;10.196;2023-03-02T04:22:20;29.97;;;9.00;;
71665;SDS011;59503;53.486;10.196;2023-03-02T04:24:46;30.30;;;9.52;;
71665;SDS011;59503;53.486;10.196;2023-03-02T04:27:13;28.77;;;8.83;;
71665;SDS011;59503;53.486;10.196;2023-03-02T04:29:39;23.85;;;8.18;;
71665;SDS011;59503;53.486;10.196;2023-03-02T04:32:05;29.33;;;9.75;;
71665;SDS011;59503;53.486;10.196;2023-03-02T04:34:31;26.95;;;9.02;;
71665;SDS011;59503;53.486;10.196;2023-03-02T04:36:58;27.85;;;8.27;;
71665;SDS011;59503;53.486;10.196;2023-03-02T04:39:24;23.20;;;8.37;;
71665;SDS011;59503;53.486;10.196;2023-03-02T04:41:50;26.48;;;8.68;;
71665;SDS011;59503;53.486;10.196;2023-03-02T04:44:16;29.60;;;9.35;;
71665;SDS011;59503;53.486;10.196;2023-03-02T04:46:43;30.38;;;8.95;;
71665;SDS011;59503;53.486;10.196;2023-03-02T04:49:10;24.08;;;8.63;;
71665;SDS011;59503;53.486;10.196;2023-03-02T04:51:37;27.67;;;8.50;;
71665;SDS011;59503;53.486;10.196;2023-03-02T04:54:07;24.67;;;8.95;;
71665;SDS011;59503;53.486;10.196;2023-03-02T04:56:38;28.95;;;9.07;;
71665;SDS011;59503;53.486;10.196;2023-03-02T04:59:03;24.90;;;8.30;;
71665;SDS011;59503;53.486;10.196;2023-03-02T05:01:29;25.55;;;8.45;;
71665;SDS011;59503;53.486;10.196;2023-03-02T05:03:54;30.33;;;9.53;;
71665;SDS011;59503;53.486;10.196;2023-03-02T05:06:20;29.03;;;8.87;;
71665;SDS011;59503;53.486;10.196;2023-03-02T05:08:48;30.15;;;9.30;;
71665;SDS011;59503;53.486;10.196;2023-03-02T05:11:14;23.60;;;9.43;;
71665;SDS011;59503;53.486;10.196;2023-03-02T05:13:46;25.73;;;9.33;;
71665;SDS011;59503;53.486;10.196;2023-03-02T05:16:22;26.15;;;9.00;;
71665;SDS011;59503;53.486;10.196;2023-03-02T05:18:49;29.60;;;9.02;;
71665;SDS011;59503;53.486;10.196;2023-03-02T05:21:15;29.47;;;9.07;;
71665;SDS011;59503;53.486;10.196;2023-03-02T05:23:41;25.30;;;8.80;;
71665;SDS011;59503;53.486;10.196;2023-03-02T05:26:07;30.95;;;9.38;;
71665;SDS011;59503;53.486;10.196;2023-03-02T05:28:32;27.70;;;8.40;;
71665;SDS011;59503;53.486;10.196;2023-03-02T05:30:59;29.85;;;9.18;;
71665;SDS011;59503;53.486;10.196;2023-03-02T05:33:26;27.15;;;8.65;;
71665;SDS011;59503;53.486;10.196;2023-03-02T05:35:52;29.52;;;8.90;;
71665;SDS011;59503;53.486;10.196;2023-03-02T05:38:18;29.83;;;8.30;;
71665;SDS011;59503;53.486;10.196;2023-03-02T05:40:43;25.70;;;7.87;;
71665;SDS011;59503;53.486;10.196;2023-03-02T05:43:09;36.50;;;9.50;;
71665;SDS011;59503;53.486;10.196;2023-03-02T05:45:39;27.02;;;8.70;;
71665;SDS011;59503;53.486;10.196;2023-03-02T05:48:05;29.53;;;8.63;;
71665;SDS011;59503;53.486;10.196;2023-03-02T05:50:32;26.58;;;8.48;;
71665;SDS011;59503;53.486;10.196;2023-03-02T05:52:57;28.47;;;9.10;;
71665;SDS011;59503;53.486;10.196;2023-03-02T05:55:24;30.33;;;8.73;;
71665;SDS011;59503;53.486;10.196;2023-03-02T05:57:50;29.50;;;8.82;;
71665;SDS011;59503;53.486;10.196;2023-03-02T06:00:16;27.98;;;8.82;;
71665;SDS011;59503;53.486;10.196;2023-03-02T06:02:42;29.20;;;8.68;;
71665;SDS011;59503;53.486;10.196;2023-03-02T06:05:11;31.77;;;9.30;;
71665;SDS011;59503;53.486;10.196;2023-03-02T06:07:38;32.47;;;8.75;;
71665;SDS011;59503;53.486;10.196;2023-03-02T06:10:05;26.27;;;9.27;;
71665;SDS011;59503;53.486;10.196;2023-03-02T06:12:30;30.67;;;10.18;;
71665;SDS011;59503;53.486;10.196;2023-03-02T06:14:56;32.83;;;10.75;;
71665;SDS011;59503;53.486;10.196;2023-03-02T06:17:23;32.47;;;9.37;;
71665;SDS011;59503;53.486;10.196;2023-03-02T06:19:49;30.23;;;8.98;;
71665;SDS011;59503;53.486;10.196;2023-03-02T06:22:14;29.77;;;9.60;;
71665;SDS011;59503;53.486;10.196;2023-03-02T06:24:40;31.33;;;9.10;;
71665;SDS011;59503;53.486;10.196;2023-03-02T06:27:05;30.73;;;9.87;;
71665;SDS011;59503;53.486;10.196;2023-03-02T06:29:30;35.23;;;10.00;;
71665;SDS011;59503;53.486;10.196;2023-03-02T06:31:56;36.30;;;10.83;;
71665;SDS011;59503;53.486;10.196;2023-03-02T06:34:21;27.90;;;9.00;;
71665;SDS011;59503;53.486;10.196;2023-03-02T06:36:47;29.77;;;8.80;;
71665;SDS011;59503;53.486;10.196;2023-03-02T06:39:12;27.33;;;9.17;;
71665;SDS011;59503;53.486;10.196;2023-03-02T06:41:41;38.58;;;10.07;;
71665;SDS011;59503;53.486;10.196;2023-03-02T06:44:07;42.13;;;11.68;;
71665;SDS011;59503;53.486;10.196;2023-03-02T06:46:33;42.20;;;12.07;;
71665;SDS011;59503;53.486;10.196;2023-03-02T06:48:59;37.13;;;10.70;;
71665;SDS011;59503;53.486;10.196;2023-03-02T06:51:24;35.50;;;10.53;;
71665;SDS011;59503;53.486;10.196;2023-03-02T06:53:49;40.90;;;11.90;;
71665;SDS011;59503;53.486;10.196;2023-03-02T06:56:15;33.43;;;10.10;;
71665;SDS011;59503;53.486;10.196;2023-03-02T06:58:40;29.37;;;9.03;;
71665;SDS011;59503;53.486;10.196;2023-03-02T07:01:06;33.60;;;9.73;;
71665;SDS011;59503;53.486;10.196;2023-03-02T07:03:32;37.80;;;9.93;;
71665;SDS011;59503;53.486;10.196;2023-03-02T07:05:57;28.03;;;9.20;;
71665;SDS011;59503;53.486;10.196;2023-03-02T07:08:23;26.10;;;8.63;;
71665;SDS011;59503;53.486;10.196;2023-03-02T07:10:48;38.10;;;10.20;;
71665;SDS011;59503;53.486;10.196;2023-03-02T07:13:13;27.67;;;8.87;;
71665;SDS011;59503;53.486;10.196;2023-03-02T07:15:39;31.00;;;9.17;;
71665;SDS011;59503;53.486;10.196;2023-03-02T07:18:04;30.93;;;8.97;;
71665;SDS011;59503;53.486;10.196;2023-03-02T07:20:30;25.48;;;8.93;;
71665;SDS011;59503;53.486;10.196;2023-03-02T07:22:55;28.23;;;8.90;;
71665;SDS011;59503;53.486;10.196;2023-03-02T07:25:21;32.27;;;9.43;;
71665;SDS011;59503;53.486;10.196;2023-03-02T07:27:46;34.17;;;9.20;;
71665;SDS011;59503;53.486;10.196;2023-03-02T07:30:12;31.90;;;8.70;;
71665;SDS011;59503;53.486;10.196;2023-03-02T07:32:39;29.08;;;9.60;;
71665;SDS011;59503;53.486;10.196;2023-03-02T07:35:04;24.50;;;8.83;;
71665;SDS011;59503;53.486;10.196;2023-03-02T07:37:30;32.50;;;10.25;;
71665;SDS011;59503;53.486;10.196;2023-03-02T07:39:56;37.30;;;10.53;;
71665;SDS011;59503;53.486;10.196;2023-03-02T07:42:21;35.45;;;10.63;;
71665;SDS011;59503;53.486;10.196;2023-03-02T07:44:46;30.23;;;9.80;;
71665;SDS011;59503;53.486;10.196;2023-03-02T07:47:12;33.37;;;11.60;;
71665;SDS011;59503;53.486;10.196;2023-03-02T07:49:37;33.27;;;11.33;;
71665;SDS011;59503;53.486;10.196;2023-03-02T07:52:03;36.33;;;10.20;;
71665;SDS011;59503;53.486;10.196;2023-03-02T07:54:29;32.67;;;10.20;;
71665;SDS011;59503;53.486;10.196;2023-03-02T07:56:58;33.00;;;10.50;;
71665;SDS011;59503;53.486;10.196;2023-03-02T07:59:24;28.88;;;10.43;;
71665;SDS011;59503;53.486;10.196;2023-03-02T08:01:49;29.43;;;10.90;;
71665;SDS011;59503;53.486;10.196;2023-03-02T08:04:15;32.33;;;11.27;;
71665;SDS011;59503;53.486;10.196;2023-03-02T08:06:41;30.30;;;9.70;;
71665;SDS011;59503;53.486;10.196;2023-03-02T08:09:06;31.73;;;10.87;;
71665;SDS011;59503;53.486;10.196;2023-03-02T08:11:32;31.17;;;9.82;;
71665;SDS011;59503;53.486;10.196;2023-03-02T08:14:00;35.17;;;9.60;;
71665;SDS011;59503;53.486;10.196;2023-03-02T08:16:27;26.92;;;9.27;;
71665;SDS011;59503;53.486;10.196;2023-03-02T08:18:53;27.55;;;10.30;;
71665;SDS011;59503;53.486;10.196;2023-03-02T08:21:20;31.60;;;10.17;;
71665;SDS011;59503;53.486;10.196;2023-03-02T08:23:48;28.20;;;9.63;;
71665;SDS011;59503;53.486;10.196;2023-03-02T08:26:14;31.23;;;9.70;;
71665;SDS011;59503;53.486;10.196;2023-03-02T08:28:40;31.42;;;9.90;;
71665;SDS011;59503;53.486;10.196;2023-03-02T08:31:06;29.73;;;10.75;;
71665;SDS011;59503;53.486;10.196;2023-03-02T08:33:33;39.03;;;10.20;;
71665;SDS011;59503;53.486;10.196;2023-03-02T08:36:03;30.50;;;9.45;;
71665;SDS011;59503;53.486;10.196;2023-03-02T08:38:30;27.17;;;9.07;;
71665;SDS011;59503;53.486;10.196;2023-03-02T08:40:57;29.55;;;10.90;;
71665;SDS011;59503;53.486;10.196;2023-03-02T08:43:23;32.27;;;10.33;;
71665;SDS011;59503;53.486;10.196;2023-03-02T08:45:52;39.25;;;11.00;;
71665;SDS011;59503;53.486;10.196;2023-03-02T08:48:20;25.00;;;10.13;;
71665;SDS011;59503;53.486;10.196;2023-03-02T08:50:56;29.88;;;10.07;;
71665;SDS011;59503;53.486;10.196;2023-03-02T08:53:27;28.70;;;10.37;;
71665;SDS011;59503;53.486;10.196;2023-03-02T08:55:53;32.63;;;10.38;;
71665;SDS011;59503;53.486;10.196;2023-03-02T08:58:19;28.70;;;10.17;;
71665;SDS011;59503;53.486;10.196;2023-03-02T09:00:44;31.27;;;11.48;;
71665;SDS011;59503;53.486;10.196;2023-03-02T09:03:10;37.10;;;11.67;;
71665;SDS011;59503;53.486;10.196;2023-03-02T09:05:36;26.55;;;10.75;;
71665;SDS011;59503;53.486;10.196;2023-03-02T09:08:02;29.27;;;11.63;;
71665;SDS011;59503;53.486;10.196;2023-03-02T09:10:28;30.08;;;10.15;;
71665;SDS011;59503;53.486;10.196;2023-03-02T09:12:53;26.13;;;9.33;;
71665;SDS011;59503;53.486;10.196;2023-03-02T09:15:19;23.43;;;8.90;;
71665;SDS011;59503;53.486;10.196;2023-03-02T09:17:44;32.33;;;11.25;;
71665;SDS011;59503;53.486;10.196;2023-03-02T09:20:10;25.03;;;9.13;;
71665;SDS011;59503;53.486;10.196;2023-03-02T09:22:35;27.00;;;9.60;;
71665;SDS011;59503;53.486;10.196;2023-03-02T09:25:04;26.47;;;9.80;;
71665;SDS011;59503;53.486;10.196;2023-03-02T09:27:30;27.08;;;8.95;;
71665;SDS011;59503;53.486;10.196;2023-03-02T09:29:56;27.10;;;9.33;;
71665;SDS011;59503;53.486;10.196;2023-03-02T09:32:22;29.55;;;9.02;;
71665;SDS011;59503;53.486;10.196;2023-03-02T09:34:47;25.03;;;9.40;;
71665;SDS011;59503;53.486;10.196;2023-03-02T09:37:13;22.63;;;8.88;;
71665;SDS011;59503;53.486;10.196;2023-03-02T09:39:38;27.00;;;9.53;;
71665;SDS011;59503;53.486;10.196;2023-03-02T09:53:00;21.63;;;8.90;;
71665;SDS011;59503;53.486;10.196;2023-03-02T09:55:30;22.80;;;8.40;;
71665;SDS011;59503;53.486;10.196;2023-03-02T09:57:59;23.20;;;8.35;;
71665;SDS011;59503;53.486;10.196;2023-03-02T10:00:28;21.70;;;7.80;;
71665;SDS011;59503;53.486;10.196;2023-03-02T10:05:27;23.48;;;7.60;;
71665;SDS011;59503;53.486;10.196;2023-03-02T10:07:55;20.45;;;7.90;;
71665;SDS011;59503;53.486;10.196;2023-03-02T10:10:42;15.97;;;6.73;;
71665;SDS011;59503;53.486;10.196;2023-03-02T10:15:58;19.38;;;6.97;;
71665;SDS011;59503;53.486;10.196;2023-03-02T10:21:34;21.70;;;8.43;;
71665;SDS011;59503;53.486;10.196;2023-03-02T10:24:49;17.10;;;7.25;;
71665;SDS011;59503;53.486;10.196;2023-03-02T10:34:44;17.33;;;7.15;;
71665;SDS011;59503;53.486;10.196;2023-03-02T10:37:12;22.70;;;8.30;;
71665;SDS011;59503;53.486;10.196;2023-03-02T10:39:40;19.00;;;7.80;;
71665;SDS011;59503;53.486;10.196;2023-03-02T10:42:06;20.27;;;7.40;;
71665;SDS011;59503;53.486;10.196;2023-03-02T10:44:38;19.35;;;7.63;;
71665;SDS011;59503;53.486;10.196;2023-03-02T10:47:18;17.60;;;7.10;;
71665;SDS011;59503;53.486;10.196;2023-03-02T10:49:52;18.02;;;7.47;;
71665;SDS011;59503;53.486;10.196;2023-03-02T10:52:20;18.93;;;8.23;;
71665;SDS011;59503;53.486;10.196;2023-03-02T10:54:47;19.90;;;8.02;;
71665;SDS011;59503;53.486;10.196;2023-03-02T10:57:57;18.85;;;8.07;;
71665;SDS011;59503;53.486;10.196;2023-03-02T11:00:17;21.08;;;8.50;;
71665;SDS011;59503;53.486;10.196;2023-03-02T11:02:47;20.40;;;7.90;;
71665;SDS011;59503;53.486;10.196;2023-03-02T11:10:32;17.30;;;6.88;;
71665;SDS011;59503;53.486;10.196;2023-03-02T11:12:59;19.35;;;7.22;;
71665;SDS011;59503;53.486;10.196;2023-03-02T11:18:05;17.53;;;6.07;;
71665;SDS011;59503;53.486;10.196;2023-03-02T11:20:42;16.23;;;6.70;;
71665;SDS011;59503;53.486;10.196;2023-03-02T11:23:22;17.25;;;6.60;;
71665;SDS011;59503;53.486;10.196;2023-03-02T11:26:04;14.95;;;6.50;;
71665;SDS011;59503;53.486;10.196;2023-03-02T11:28:43;19.38;;;6.50;;
71665;SDS011;59503;53.486;10.196;2023-03-02T11:31:14;16.70;;;6.50;;
71665;SDS011;59503;53.486;10.196;2023-03-02T11:33:52;16.98;;;6.72;;
71665;SDS011;59503;53.486;10.196;2023-03-02T11:36:38;14.60;;;6.25;;
71665;SDS011;59503;53.486;10.196;2023-03-02T11:39:13;20.35;;;7.20;;
71665;SDS011;59503;53.486;10.196;2023-03-02T11:41:43;18.35;;;7.80;;
71665;SDS011;59503;53.486;10.196;2023-03-02T11:44:15;20.10;;;7.13;;
71665;SDS011;59503;53.486;10.196;2023-03-02T11:46:43;15.27;;;6.72;;
71665;SDS011;59503;53.486;10.196;2023-03-02T11:49:18;15.70;;;5.88;;
71665;SDS011;59503;53.486;10.196;2023-03-02T11:51:50;16.10;;;6.78;;
71665;SDS011;59503;53.486;10.196;2023-03-02T11:57:19;19.73;;;7.60;;
71665;SDS011;59503;53.486;10.196;2023-03-02T11:59:56;16.13;;;7.15;;
71665;SDS011;59503;53.486;10.196;2023-03-02T12:02:24;17.20;;;7.78;;
71665;SDS011;59503;53.486;10.196;2023-03-02T12:05:00;17.63;;;6.05;;
71665;SDS011;59503;53.486;10.196;2023-03-02T12:07:30;16.87;;;6.17;;
71665;SDS011;59503;53.486;10.196;2023-03-02T12:10:01;14.63;;;6.38;;
71665;SDS011;59503;53.486;10.196;2023-03-02T12:12:36;14.73;;;6.22;;
71665;SDS011;59503;53.486;10.196;2023-03-02T12:15:50;14.88;;;6.15;;
71665;SDS011;59503;53.486;10.196;2023-03-02T12:17:53;15.57;;;6.40;;
71665;SDS011;59503;53.486;10.196;2023-03-02T12:20:28;16.93;;;6.63;;
71665;SDS011;59503;53.486;10.196;2023-03-02T12:23:05;16.88;;;6.85;;
71665;SDS011;59503;53.486;10.196;2023-03-02T12:25:36;17.10;;;6.35;;
71665;SDS011;59503;53.486;10.196;2023-03-02T12:28:22;17.20;;;6.70;;
71665;SDS011;59503;53.486;10.196;2023-03-02T12:31:00;17.83;;;6.47;;
71665;SDS011;59503;53.486;10.196;2023-03-02T12:33:27;15.48;;;6.38;;
71665;SDS011;59503;53.486;10.196;2023-03-02T12:36:01;16.27;;;6.60;;
71665;SDS011;59503;53.486;10.196;2023-03-02T12:38:39;14.77;;;5.90;;
71665;SDS011;59503;53.486;10.196;2023-03-02T12:41:13;14.23;;;6.65;;
71665;SDS011;59503;53.486;10.196;2023-03-02T12:43:54;15.00;;;6.50;;
71665;SDS011;59503;53.486;10.196;2023-03-02T12:46:31;16.55;;;6.35;;
71665;SDS011;59503;53.486;10.196;2023-03-02T12:54:18;16.08;;;6.75;;
71665;SDS011;59503;53.486;10.196;2023-03-02T12:56:45;15.32;;;6.63;;
71665;SDS011;59503;53.486;10.196;2023-03-02T12:59:21;17.67;;;6.40;;
71665;SDS011;59503;53.486;10.196;2023-03-02T13:01:49;15.88;;;6.47;;
71665;SDS011;59503;53.486;10.196;2023-03-02T13:04:22;16.80;;;6.35;;
71665;SDS011;59503;53.486;10.196;2023-03-02T13:06:48;15.63;;;7.20;;
71665;SDS011;59503;53.486;10.196;2023-03-02T13:09:14;16.83;;;7.15;;
71665;SDS011;59503;53.486;10.196;2023-03-02T13:11:40;17.57;;;7.53;;
71665;SDS011;59503;53.486;10.196;2023-03-02T13:14:17;15.63;;;6.78;;
71665;SDS011;59503;53.486;10.196;2023-03-02T13:16:52;15.88;;;6.70;;
71665;SDS011;59503;53.486;10.196;2023-03-02T13:19:22;17.40;;;6.75;;
71665;SDS011;59503;53.486;10.196;2023-03-02T13:21:48;15.80;;;6.63;;
71665;SDS011;59503;53.486;10.196;2023-03-02T13:26:58;15.15;;;6.40;;
71665;SDS011;59503;53.486;10.196;2023-03-02T13:29:29;18.67;;;6.93;;
71665;SDS011;59503;53.486;10.196;2023-03-02T13:31:55;17.20;;;7.37;;
71665;SDS011;59503;53.486;10.196;2023-03-02T13:36:55;16.48;;;6.90;;
71665;SDS011;59503;53.486;10.196;2023-03-02T13:39:21;18.33;;;7.35;;
71665;SDS011;59503;53.486;10.196;2023-03-02T13:41:51;18.93;;;7.50;;
71665;SDS011;59503;53.486;10.196;2023-03-02T13:44:19;19.27;;;7.85;;
71665;SDS011;59503;53.486;10.196;2023-03-02T13:46:49;17.85;;;7.40;;
71665;SDS011;59503;53.486;10.196;2023-03-02T13:49:24;15.97;;;7.73;;
71665;SDS011;59503;53.486;10.196;2023-03-02T13:51:55;18.38;;;7.18;;
71665;SDS011;59503;53.486;10.196;2023-03-02T13:54:28;17.20;;;6.50;;
71665;SDS011;59503;53.486;10.196;2023-03-02T13:56:56;16.60;;;5.97;;
71665;SDS011;59503;53.486;10.196;2023-03-02T13:59:23;14.10;;;5.97;;
71665;SDS011;59503;53.486;10.196;2023-03-02T14:01:49;15.07;;;5.78;;
71665;SDS011;59503;53.486;10.196;2023-03-02T14:04:16;15.48;;;6.55;;
71665;SDS011;59503;53.486;10.196;2023-03-02T14:06:45;14.32;;;5.50;;
71665;SDS011;59503;53.486;10.196;2023-03-02T14:09:11;16.17;;;6.25;;
71665;SDS011;59503;53.486;10.196;2023-03-02T14:11:39;17.20;;;6.50;;
71665;SDS011;59503;53.486;10.196;2023-03-02T14:14:06;14.80;;;6.30;;
71665;SDS011;59503;53.486;10.196;2023-03-02T14:16:40;15.77;;;6.25;;
71665;SDS011;59503;53.486;10.196;2023-03-02T14:19:06;16.23;;;6.37;;
71665;SDS011;59503;53.486;10.196;2023-03-02T14:21:33;16.73;;;6.03;;
71665;SDS011;59503;53.486;10.196;2023-03-02T14:23:59;15.93;;;6.80;;
71665;SDS011;59503;53.486;10.196;2023-03-02T14:26:27;14.57;;;6.57;;
71665;SDS011;59503;53.486;10.196;2023-03-02T14:31:42;14.43;;;6.25;;
71665;SDS011;59503;53.486;10.196;2023-03-02T14:34:11;15.87;;;6.57;;
71665;SDS011;59503;53.486;10.196;2023-03-02T14:36:37;15.02;;;5.40;;
71665;SDS011;59503;53.486;10.196;2023-03-02T14:39:04;13.57;;;5.63;;
71665;SDS011;59503;53.486;10.196;2023-03-02T14:41:34;13.43;;;5.22;;
71665;SDS011;59503;53.486;10.196;2023-03-02T14:44:02;16.63;;;5.70;;
71665;SDS011;59503;53.486;10.196;2023-03-02T14:46:28;14.95;;;5.60;;
71665;SDS011;59503;53.486;10.196;2023-03-02T14:48:53;18.23;;;6.17;;
71665;SDS011;59503;53.486;10.196;2023-03-02T14:51:20;16.83;;;6.30;;
71665;SDS011;59503;53.486;10.196;2023-03-02T14:53:48;14.45;;;5.82;;
71665;SDS011;59503;53.486;10.196;2023-03-02T14:56:17;16.20;;;6.40;;
71665;SDS011;59503;53.486;10.196;2023-03-02T14:58:46;11.25;;;5.57;;
71665;SDS011;59503;53.486;10.196;2023-03-02T15:01:12;10.90;;;4.63;;
71665;SDS011;59503;53.486;10.196;2023-03-02T15:03:38;12.00;;;4.97;;
71665;SDS011;59503;53.486;10.196;2023-03-02T15:06:05;12.17;;;5.10;;
71665;SDS011;59503;53.486;10.196;2023-03-02T15:08:39;11.90;;;5.03;;
71665;SDS011;59503;53.486;10.196;2023-03-02T15:11:04;9.40;;;4.10;;
71665;SDS011;59503;53.486;10.196;2023-03-02T15:13:30;11.77;;;4.53;;
71665;SDS011;59503;53.486;10.196;2023-03-02T15:15:55;13.40;;;5.40;;
71665;SDS011;59503;53.486;10.196;2023-03-02T15:18:21;13.13;;;4.93;;
71665;SDS011;59503;53.486;10.196;2023-03-02T15:20:46;12.80;;;4.90;;
71665;SDS011;59503;53.486;10.196;2023-03-02T15:23:11;12.93;;;4.90;;
71665;SDS011;59503;53.486;10.196;2023-03-02T15:25:37;11.70;;;5.57;;